sensor_id;sensor_type;location;lat;lon;timestamp;pressure;altitude;pressure_sealevel;temperature;humidity
36380;BME280;22411;53.016;18.632;2023-04-07T00:00:59;100960.00;;;2.65;100.00
36380;BME280;22411;53.016;18.632;2023-04-07T00:03:26;100957.44;;;2.63;100.00
36380;BME280;22411;53.016;18.632;2023-04-07T00:05:51;100956.47;;;2.67;100.00
36380;BME280;22411;53.016;18.632;2023-04-07T00:08:18;100956.47;;;2.67;100.00
36380;BME280;22411;53.016;18.632;2023-04-07T00:10:44;100955.59;;;2.68;100.00
36380;BME280;22411;53.016;18.632;2023-04-07T00:13:10;100956.47;;;2.67;100.00
36380;BME280;22411;53.016;18.632;2023-04-07T00:15:36;100955.59;;;2.68;100.00
36380;BME280;22411;53.016;18.632;2023-04-07T00:18:03;100945.22;;;2.73;100.00
36380;BME280;22411;53.016;18.632;2023-04-07T00:20:29;100943.56;;;2.72;100.00
36380;BME280;22411;53.016;18.632;2023-04-07T00:22:55;100942.59;;;2.76;100.00
36380;BME280;22411;53.016;18.632;2023-04-07T00:25:21;100942.66;;;2.74;100.00
36380;BME280;22411;53.016;18.632;2023-04-07T00:27:51;100937.56;;;2.73;100.00
36380;BME280;22411;53.016;18.632;2023-04-07T00:30:17;100935.00;;;2.73;100.00
36380;BME280;22411;53.016;18.632;2023-04-07T00:32:44;100938.38;;;2.73;100.00
36380;BME280;22411;53.016;18.632;2023-04-07T00:35:10;100939.09;;;2.78;100.00
36380;BME280;22411;53.016;18.632;2023-04-07T00:37:36;100931.38;;;2.80;100.00
36380;BME280;22411;53.016;18.632;2023-04-07T00:40:03;100921.16;;;2.80;100.00
36380;BME280;22411;53.016;18.632;2023-04-07T00:42:30;100919.44;;;2.80;100.00
36380;BME280;22411;53.016;18.632;2023-04-07T00:44:58;100917.72;;;2.79;100.00
36380;BME280;22411;53.016;18.632;2023-04-07T00:47:24;100917.72;;;2.79;100.00
36380;BME280;22411;53.016;18.632;2023-04-07T00:49:50;100914.31;;;2.80;100.00
36380;BME280;22411;53.016;18.632;2023-04-07T00:52:18;100920.13;;;2.85;100.00
36380;BME280;22411;53.016;18.632;2023-04-07T00:54:45;100923.47;;;2.87;100.00
36380;BME280;22411;53.016;18.632;2023-04-07T00:57:12;100907.22;;;2.88;100.00
36380;BME280;22411;53.016;18.632;2023-04-07T00:59:38;100913.97;;;2.91;100.00
36380;BME280;22411;53.016;18.632;2023-04-07T01:02:09;100909.59;;;2.95;100.00
36380;BME280;22411;53.016;18.632;2023-04-07T01:04:59;100908.81;;;2.93;100.00
36380;BME280;22411;53.016;18.632;2023-04-07T01:08:16;100906.19;;;2.94;100.00
36380;BME280;22411;53.016;18.632;2023-04-07T01:10:46;100911.13;;;3.00;100.00
36380;BME280;22411;53.016;18.632;2023-04-07T01:13:36;100915.41;;;3.00;100.00
36380;BME280;22411;53.016;18.632;2023-04-07T01:16:06;100911.19;;;2.99;100.00
36380;BME280;22411;53.016;18.632;2023-04-07T01:18:35;100908.56;;;3.00;100.00
36380;BME280;22411;53.016;18.632;2023-04-07T01:21:10;100904.31;;;2.99;100.00
36380;BME280;22411;53.016;18.632;2023-04-07T01:24:21;100899.22;;;2.99;100.00
36380;BME280;22411;53.016;18.632;2023-04-07T01:26:58;100895.72;;;3.02;100.00
36380;BME280;22411;53.016;18.632;2023-04-07T01:29:33;100889.56;;;3.07;100.00
36380;BME280;22411;53.016;18.632;2023-04-07T01:32:03;100891.31;;;3.05;100.00
36380;BME280;22411;53.016;18.632;2023-04-07T01:34:31;100887.09;;;3.04;100.00
36380;BME280;22411;53.016;18.632;2023-04-07T01:37:00;100887.94;;;3.05;100.00
36380;BME280;22411;53.016;18.632;2023-04-07T01:39:27;100884.53;;;3.04;100.00
36380;BME280;22411;53.016;18.632;2023-04-07T01:41:54;100881.94;;;3.06;100.00
36380;BME280;22411;53.016;18.632;2023-04-07T01:44:21;100878.50;;;3.07;100.00
36380;BME280;22411;53.016;18.632;2023-04-07T01:46:48;100875.88;;;3.08;100.00
36380;BME280;22411;53.016;18.632;2023-04-07T01:49:18;100875.78;;;3.11;100.00
36380;BME280;22411;53.016;18.632;2023-04-07T01:51:45;100883.47;;;3.11;100.00
36380;BME280;22411;53.016;18.632;2023-04-07T01:54:16;100879.06;;;3.17;100.00
36380;BME280;22411;53.016;18.632;2023-04-07T01:56:44;100882.44;;;3.17;100.00
36380;BME280;22411;53.016;18.632;2023-04-07T01:59:10;100879.00;;;3.18;100.00
36380;BME280;22411;53.016;18.632;2023-04-07T02:01:37;100877.22;;;3.20;100.00
36380;BME280;22411;53.016;18.632;2023-04-07T02:04:14;100872.91;;;3.21;100.00
36380;BME280;22411;53.016;18.632;2023-04-07T02:06:55;100869.63;;;3.17;100.00
36380;BME280;22411;53.016;18.632;2023-04-07T02:09:26;100866.25;;;3.17;100.00
36380;BME280;22411;53.016;18.632;2023-04-07T02:11:57;100864.59;;;3.14;100.00
36380;BME280;22411;53.016;18.632;2023-04-07T02:14:25;100865.38;;;3.16;100.00
36380;BME280;22411;53.016;18.632;2023-04-07T02:16:52;100867.06;;;3.17;100.00
36380;BME280;22411;53.016;18.632;2023-04-07T02:19:19;100867.78;;;3.21;100.00
36380;BME280;22411;53.016;18.632;2023-04-07T02:21:45;100864.47;;;3.19;100.00
36380;BME280;22411;53.016;18.632;2023-04-07T02:24:13;100860.94;;;3.21;100.00
36380;BME280;22411;53.016;18.632;2023-04-07T02:26:41;100859.34;;;3.19;100.00
36380;BME280;22411;53.016;18.632;2023-04-07T02:29:07;100855.03;;;3.19;100.00
36380;BME280;22411;53.016;18.632;2023-04-07T02:31:34;100847.28;;;3.22;100.00
36380;BME280;22411;53.016;18.632;2023-04-07T02:34:00;100854.06;;;3.23;100.00
36380;BME280;22411;53.016;18.632;2023-04-07T02:36:26;100845.47;;;3.24;100.00
36380;BME280;22411;53.016;18.632;2023-04-07T02:38:53;100839.47;;;3.25;100.00
36380;BME280;22411;53.016;18.632;2023-04-07T02:41:19;100837.88;;;3.23;100.00
36380;BME280;22411;53.016;18.632;2023-04-07T02:43:47;100836.13;;;3.23;100.00
36380;BME280;22411;53.016;18.632;2023-04-07T02:46:13;100834.41;;;3.24;100.00
36380;BME280;22411;53.016;18.632;2023-04-07T02:48:41;100834.41;;;3.24;100.00
36380;BME280;22411;53.016;18.632;2023-04-07T02:51:07;100839.59;;;3.22;100.00
36380;BME280;22411;53.016;18.632;2023-04-07T02:53:33;100834.47;;;3.22;100.00
36380;BME280;22411;53.016;18.632;2023-04-07T02:55:59;100828.44;;;3.23;100.00
36380;BME280;22411;53.016;18.632;2023-04-07T02:58:25;100834.41;;;3.24;100.00
36380;BME280;22411;53.016;18.632;2023-04-07T03:00:52;100832.63;;;3.26;100.00
36380;BME280;22411;53.016;18.632;2023-04-07T03:03:18;100830.06;;;3.26;100.00
36380;BME280;22411;53.016;18.632;2023-04-07T03:05:45;100826.50;;;3.30;100.00
36380;BME280;22411;53.016;18.632;2023-04-07T03:08:11;100830.75;;;3.31;100.00
36380;BME280;22411;53.016;18.632;2023-04-07T03:10:37;100831.56;;;3.31;100.00
36380;BME280;22411;53.016;18.632;2023-04-07T03:13:03;100828.94;;;3.34;100.00
36380;BME280;22411;53.016;18.632;2023-04-07T03:15:30;100826.28;;;3.37;100.00
36380;BME280;22411;53.016;18.632;2023-04-07T03:17:57;100830.66;;;3.34;100.00
36380;BME280;22411;53.016;18.632;2023-04-07T03:20:22;100825.41;;;3.37;100.00
36380;BME280;22411;53.016;18.632;2023-04-07T03:22:49;100829.69;;;3.36;100.00
36380;BME280;22411;53.016;18.632;2023-04-07T03:25:16;100827.09;;;3.38;100.00
36380;BME280;22411;53.016;18.632;2023-04-07T03:27:42;100833.78;;;3.42;100.00
36380;BME280;22411;53.016;18.632;2023-04-07T03:30:09;100830.34;;;3.43;100.00
36380;BME280;22411;53.016;18.632;2023-04-07T03:32:35;100833.78;;;3.42;100.00
36380;BME280;22411;53.016;18.632;2023-04-07T03:35:01;100823.50;;;3.44;100.00
36380;BME280;22411;53.016;18.632;2023-04-07T03:37:27;100827.88;;;3.40;100.00
36380;BME280;22411;53.016;18.632;2023-04-07T03:39:53;100820.19;;;3.40;100.00
36380;BME280;22411;53.016;18.632;2023-04-07T03:42:19;100827.00;;;3.41;100.00
36380;BME280;22411;53.016;18.632;2023-04-07T03:44:45;100828.56;;;3.45;100.00
36380;BME280;22411;53.016;18.632;2023-04-07T03:47:13;100824.22;;;3.47;100.00
36380;BME280;22411;53.016;18.632;2023-04-07T03:49:39;100822.59;;;3.45;100.00
36380;BME280;22411;53.016;18.632;2023-04-07T03:52:06;100819.16;;;3.46;100.00
36380;BME280;22411;53.016;18.632;2023-04-07T03:54:32;100821.63;;;3.49;100.00
36380;BME280;22411;53.016;18.632;2023-04-07T03:57:00;100810.63;;;3.45;100.00
36380;BME280;22411;53.016;18.632;2023-04-07T03:59:27;100817.31;;;3.49;100.00
36380;BME280;22411;53.016;18.632;2023-04-07T04:01:53;100813.88;;;3.50;100.00
36380;BME280;22411;53.016;18.632;2023-04-07T04:04:20;100815.59;;;3.50;100.00
36380;BME280;22411;53.016;18.632;2023-04-07T04:06:47;100825.69;;;3.54;100.00
36380;BME280;22411;53.016;18.632;2023-04-07T04:09:13;100819.75;;;3.54;100.00
36380;BME280;22411;53.016;18.632;2023-04-07T04:11:39;100825.78;;;3.51;100.00
36380;BME280;22411;53.016;18.632;2023-04-07T04:14:05;100823.06;;;3.56;100.00
36380;BME280;22411;53.016;18.632;2023-04-07T04:16:32;100817.06;;;3.57;100.00
36380;BME280;22411;53.016;18.632;2023-04-07T04:19:00;100818.72;;;3.58;100.00
36380;BME280;22411;53.016;18.632;2023-04-07T04:21:26;100823.81;;;3.59;100.00
36380;BME280;22411;53.016;18.632;2023-04-07T04:23:52;100824.66;;;3.60;100.00
36380;BME280;22411;53.016;18.632;2023-04-07T04:26:19;100822.84;;;3.62;100.00
36380;BME280;22411;53.016;18.632;2023-04-07T04:28:45;100824.53;;;3.63;100.00
36380;BME280;22411;53.016;18.632;2023-04-07T04:31:11;100826.16;;;3.65;100.00
36380;BME280;22411;53.016;18.632;2023-04-07T04:33:37;100827.75;;;3.68;100.00
36380;BME280;22411;53.016;18.632;2023-04-07T04:36:04;100826.88;;;3.69;100.00
36380;BME280;22411;53.016;18.632;2023-04-07T04:38:30;100819.84;;;3.74;100.00
36380;BME280;22411;53.016;18.632;2023-04-07T04:40:58;100825.84;;;3.75;100.00
36380;BME280;22411;53.016;18.632;2023-04-07T04:43:27;100830.84;;;3.78;100.00
36380;BME280;22411;53.016;18.632;2023-04-07T04:45:55;100832.66;;;3.76;100.00
36380;BME280;22411;53.016;18.632;2023-04-07T04:48:21;100829.13;;;3.78;100.00
36380;BME280;22411;53.016;18.632;2023-04-07T04:50:47;100830.03;;;3.77;100.00
36380;BME280;22411;53.016;18.632;2023-04-07T04:53:14;100832.50;;;3.80;100.00
36380;BME280;22411;53.016;18.632;2023-04-07T04:55:41;100832.50;;;3.80;100.00
36380;BME280;22411;53.016;18.632;2023-04-07T04:58:12;100834.03;;;3.84;100.00
36380;BME280;22411;53.016;18.632;2023-04-07T05:00:38;100829.81;;;3.83;100.00
36380;BME280;22411;53.016;18.632;2023-04-07T05:03:04;100826.31;;;3.86;100.00
36380;BME280;22411;53.016;18.632;2023-04-07T05:05:31;100824.59;;;3.85;100.00
36380;BME280;22411;53.016;18.632;2023-04-07T05:07:57;100825.28;;;3.90;100.00
36380;BME280;22411;53.016;18.632;2023-04-07T05:10:24;100817.44;;;3.94;100.00
36380;BME280;22411;53.016;18.632;2023-04-07T05:12:50;100822.34;;;4.01;100.00
36380;BME280;22411;53.016;18.632;2023-04-07T05:15:17;100819.00;;;3.99;100.00
36380;BME280;22411;53.016;18.632;2023-04-07T05:17:43;100831.72;;;4.02;100.00
36380;BME280;22411;53.016;18.632;2023-04-07T05:20:15;100834.28;;;4.02;100.00
36380;BME280;22411;53.016;18.632;2023-04-07T05:22:42;100824.06;;;4.00;100.00
36380;BME280;22411;53.016;18.632;2023-04-07T05:25:11;100829.19;;;4.00;100.00
36380;BME280;22411;53.016;18.632;2023-04-07T05:27:37;100839.25;;;4.06;100.00
36380;BME280;22411;53.016;18.632;2023-04-07T05:30:05;100829.75;;;4.08;100.00
36380;BME280;22411;53.016;18.632;2023-04-07T05:32:31;100839.94;;;4.11;100.00
36380;BME280;22411;53.016;18.632;2023-04-07T05:34:57;100841.53;;;4.14;100.00
36380;BME280;22411;53.016;18.632;2023-04-07T05:37:23;100840.69;;;4.13;100.00
36380;BME280;22411;53.016;18.632;2023-04-07T05:39:50;100838.97;;;4.14;100.00
36380;BME280;22411;53.016;18.632;2023-04-07T05:42:16;100839.56;;;4.20;100.00
36380;BME280;22411;53.016;18.632;2023-04-07T05:44:42;100834.44;;;4.20;100.00
36380;BME280;22411;53.016;18.632;2023-04-07T05:47:08;100835.28;;;4.21;100.00
36380;BME280;22411;53.016;18.632;2023-04-07T05:49:34;100836.06;;;4.23;100.00
36380;BME280;22411;53.016;18.632;2023-04-07T05:52:00;100838.50;;;4.26;100.00
36380;BME280;22411;53.016;18.632;2023-04-07T05:54:28;100830.78;;;4.28;100.00
36380;BME280;22411;53.016;18.632;2023-04-07T05:56:55;100828.00;;;4.32;100.00
36380;BME280;22411;53.016;18.632;2023-04-07T05:59:22;100840.81;;;4.34;100.00
36380;BME280;22411;53.016;18.632;2023-04-07T06:01:48;100839.84;;;4.36;100.00
36380;BME280;22411;53.016;18.632;2023-04-07T06:04:15;100842.25;;;4.41;100.00
36380;BME280;22411;53.016;18.632;2023-04-07T06:06:41;100833.53;;;4.45;100.00
36380;BME280;22411;53.016;18.632;2023-04-07T06:09:07;100840.34;;;4.46;100.00
36380;BME280;22411;53.016;18.632;2023-04-07T06:11:33;100846.38;;;4.45;100.00
36380;BME280;22411;53.016;18.632;2023-04-07T06:14:00;100842.91;;;4.46;100.00
36380;BME280;22411;53.016;18.632;2023-04-07T06:16:26;100835.94;;;4.50;100.00
36380;BME280;22411;53.016;18.632;2023-04-07T06:18:52;100853.00;;;4.51;100.00
36380;BME280;22411;53.016;18.632;2023-04-07T06:21:18;100846.97;;;4.52;100.00
36380;BME280;22411;53.016;18.632;2023-04-07T06:23:45;100844.22;;;4.56;100.00
36380;BME280;22411;53.016;18.632;2023-04-07T06:26:10;100852.75;;;4.57;100.00
36380;BME280;22411;53.016;18.632;2023-04-07T06:28:38;100853.56;;;4.59;100.00
36380;BME280;22411;53.016;18.632;2023-04-07T06:31:04;100844.06;;;4.61;100.00
36380;BME280;22411;53.016;18.632;2023-04-07T06:33:31;100844.66;;;4.67;100.00
36380;BME280;22411;53.016;18.632;2023-04-07T06:35:59;100851.47;;;4.68;100.00
36380;BME280;22411;53.016;18.632;2023-04-07T06:38:26;100840.31;;;4.69;100.00
36380;BME280;22411;53.016;18.632;2023-04-07T06:40:52;100855.41;;;4.77;100.00
36380;BME280;22411;53.016;18.632;2023-04-07T06:43:18;100849.31;;;4.80;100.00
36380;BME280;22411;53.016;18.632;2023-04-07T06:45:44;100850.81;;;4.85;100.00
36380;BME280;22411;53.016;18.632;2023-04-07T06:48:10;100856.78;;;4.86;100.00
36380;BME280;22411;53.016;18.632;2023-04-07T06:50:36;100857.66;;;4.85;100.00
36380;BME280;22411;53.016;18.632;2023-04-07T06:53:06;100850.81;;;4.85;100.00
36380;BME280;22411;53.016;18.632;2023-04-07T06:55:32;100851.59;;;4.87;100.00
36380;BME280;22411;53.016;18.632;2023-04-07T06:57:58;100851.34;;;4.93;100.00
36380;BME280;22411;53.016;18.632;2023-04-07T07:00:24;100853.09;;;4.93;100.00
36380;BME280;22411;53.016;18.632;2023-04-07T07:02:52;100853.75;;;4.98;100.00
36380;BME280;22411;53.016;18.632;2023-04-07T07:05:17;100852.72;;;5.02;100.00
36380;BME280;22411;53.016;18.632;2023-04-07T07:07:43;100851.06;;;5.01;100.00
36380;BME280;22411;53.016;18.632;2023-04-07T07:10:09;100847.44;;;5.05;100.00
36380;BME280;22411;53.016;18.632;2023-04-07T07:12:36;100853.25;;;5.10;100.00
36380;BME280;22411;53.016;18.632;2023-04-07T07:15:03;100851.13;;;5.20;100.00
36380;BME280;22411;53.016;18.632;2023-04-07T07:17:29;100849.16;;;5.27;100.00
36380;BME280;22411;53.016;18.632;2023-04-07T07:19:55;100837.75;;;5.34;100.00
36380;BME280;22411;53.016;18.632;2023-04-07T07:22:21;100839.06;;;5.42;100.00
36380;BME280;22411;53.016;18.632;2023-04-07T07:24:47;100841.19;;;5.53;100.00
36380;BME280;22411;53.016;18.632;2023-04-07T07:27:14;100831.56;;;5.58;100.00
36380;BME280;22411;53.016;18.632;2023-04-07T07:29:40;100836.84;;;5.75;100.00
36380;BME280;22411;53.016;18.632;2023-04-07T07:32:08;100838.78;;;5.89;100.00
36380;BME280;22411;53.016;18.632;2023-04-07T07:34:37;100851.09;;;6.03;100.00
36380;BME280;22411;53.016;18.632;2023-04-07T07:37:03;100859.72;;;6.02;100.00
36380;BME280;22411;53.016;18.632;2023-04-07T07:39:30;100855.31;;;6.04;100.00
36380;BME280;22411;53.016;18.632;2023-04-07T07:41:57;100862.03;;;6.08;100.00
36380;BME280;22411;53.016;18.632;2023-04-07T07:44:23;100865.16;;;6.15;100.00
36380;BME280;22411;53.016;18.632;2023-04-07T07:46:49;100854.25;;;6.28;100.00
36380;BME280;22411;53.016;18.632;2023-04-07T07:49:15;100857.72;;;6.46;100.00
36380;BME280;22411;53.016;18.632;2023-04-07T07:51:42;100857.09;;;6.60;100.00
36380;BME280;22411;53.016;18.632;2023-04-07T07:54:08;100853.56;;;6.80;100.00
36380;BME280;22411;53.016;18.632;2023-04-07T07:56:36;100866.50;;;6.97;100.00
36380;BME280;22411;53.016;18.632;2023-04-07T07:59:03;100871.97;;;7.08;100.00
36380;BME280;22411;53.016;18.632;2023-04-07T08:01:31;100871.97;;;7.08;100.00
36380;BME280;22411;53.016;18.632;2023-04-07T08:03:58;100869.63;;;7.04;100.00
36380;BME280;22411;53.016;18.632;2023-04-07T08:06:25;100877.28;;;7.05;100.00
36380;BME280;22411;53.016;18.632;2023-04-07T08:08:53;100873.25;;;7.00;100.00
36380;BME280;22411;53.016;18.632;2023-04-07T08:11:20;100871.50;;;7.00;100.00
36380;BME280;22411;53.016;18.632;2023-04-07T08:13:46;100876.31;;;7.08;100.00
36380;BME280;22411;53.016;18.632;2023-04-07T08:16:12;100874.34;;;7.13;100.00
36380;BME280;22411;53.016;18.632;2023-04-07T08:18:38;100870.25;;;7.26;100.00
36380;BME280;22411;53.016;18.632;2023-04-07T08:21:05;100869.94;;;7.32;100.00
36380;BME280;22411;53.016;18.632;2023-04-07T08:23:31;100879.97;;;7.39;100.00
36380;BME280;22411;53.016;18.632;2023-04-07T08:25:57;100878.91;;;7.43;100.00
36380;BME280;22411;53.016;18.632;2023-04-07T08:28:25;100877.84;;;7.47;100.00
36380;BME280;22411;53.016;18.632;2023-04-07T08:30:51;100876.88;;;7.49;100.00
36380;BME280;22411;53.016;18.632;2023-04-07T08:33:17;100877.72;;;7.50;100.00
36380;BME280;22411;53.016;18.632;2023-04-07T08:35:43;100873.91;;;7.57;100.00
36380;BME280;22411;53.016;18.632;2023-04-07T08:38:09;100872.84;;;7.61;100.00
36380;BME280;22411;53.016;18.632;2023-04-07T08:40:36;100879.81;;;7.59;100.00
36380;BME280;22411;53.016;18.632;2023-04-07T08:43:07;100879.38;;;7.51;100.00
36380;BME280;22411;53.016;18.632;2023-04-07T08:45:38;100872.59;;;7.48;100.00
36380;BME280;22411;53.016;18.632;2023-04-07T08:48:16;100871.09;;;7.44;100.00
36380;BME280;22411;53.016;18.632;2023-04-07T08:50:48;100862.44;;;7.45;100.00
36380;BME280;22411;53.016;18.632;2023-04-07T08:53:22;100868.06;;;7.53;100.00
36380;BME280;22411;53.016;18.632;2023-04-07T08:55:50;100861.69;;;7.60;100.00
36380;BME280;22411;53.016;18.632;2023-04-07T08:58:17;100864.94;;;7.64;100.00
36380;BME280;22411;53.016;18.632;2023-04-07T09:00:44;100850.88;;;7.70;100.00
36380;BME280;22411;53.016;18.632;2023-04-07T09:03:10;100855.16;;;7.71;100.00
36380;BME280;22411;53.016;18.632;2023-04-07T09:05:37;100856.97;;;7.69;100.00
36380;BME280;22411;53.016;18.632;2023-04-07T09:08:03;100857.19;;;7.64;100.00
36380;BME280;22411;53.016;18.632;2023-04-07T09:10:30;100853.47;;;7.70;100.00
36380;BME280;22411;53.016;18.632;2023-04-07T09:12:57;100859.91;;;7.78;100.00
36380;BME280;22411;53.016;18.632;2023-04-07T09:15:28;100852.94;;;7.80;100.00
36380;BME280;22411;53.016;18.632;2023-04-07T09:17:55;100847.47;;;7.86;100.00
36380;BME280;22411;53.016;18.632;2023-04-07T09:20:22;100853.22;;;7.92;100.00
36380;BME280;22411;53.016;18.632;2023-04-07T09:22:48;100847.50;;;8.02;100.00
36380;BME280;22411;53.016;18.632;2023-04-07T09:25:22;100845.34;;;8.26;100.00
36380;BME280;22411;53.016;18.632;2023-04-07T09:30:21;100844.56;;;8.57;100.00
36380;BME280;22411;53.016;18.632;2023-04-07T09:32:48;100848.56;;;8.63;100.00
36380;BME280;22411;53.016;18.632;2023-04-07T09:35:14;100853.34;;;8.55;100.00
36380;BME280;22411;53.016;18.632;2023-04-07T09:37:40;100851.34;;;8.44;100.00
36380;BME280;22411;53.016;18.632;2023-04-07T09:40:07;100847.00;;;8.45;100.00
36380;BME280;22411;53.016;18.632;2023-04-07T09:42:34;100836.25;;;8.52;100.00
36380;BME280;22411;53.016;18.632;2023-04-07T09:45:03;100846.56;;;8.52;100.00
36380;BME280;22411;53.016;18.632;2023-04-07T09:47:31;100852.31;;;8.57;100.00
36380;BME280;22411;53.016;18.632;2023-04-07T09:49:57;100844.81;;;8.53;100.00
36380;BME280;22411;53.016;18.632;2023-04-07T09:52:48;100845.84;;;8.50;100.00
36380;BME280;22411;53.016;18.632;2023-04-07T09:55:14;100844.56;;;8.42;100.00
36380;BME280;22411;53.016;18.632;2023-04-07T09:57:41;100842.16;;;8.38;100.00
36380;BME280;22411;53.016;18.632;2023-04-07T10:00:10;100832.59;;;8.41;100.00
36380;BME280;22411;53.016;18.632;2023-04-07T10:02:36;100827.31;;;8.42;100.00
36380;BME280;22411;53.016;18.632;2023-04-07T10:05:03;100827.06;;;8.47;100.00
36380;BME280;22411;53.016;18.632;2023-04-07T10:07:30;100837.31;;;8.48;100.00
36380;BME280;22411;53.016;18.632;2023-04-07T10:09:56;100836.16;;;8.54;100.00
36380;BME280;22411;53.016;18.632;2023-04-07T10:12:22;100839.31;;;8.59;100.00
36380;BME280;22411;53.016;18.632;2023-04-07T10:14:50;100840.19;;;8.59;100.00
36380;BME280;22411;53.016;18.632;2023-04-07T10:17:17;100833.50;;;8.55;100.00
36380;BME280;22411;53.016;18.632;2023-04-07T10:19:45;100834.91;;;8.61;100.00
36380;BME280;22411;53.016;18.632;2023-04-07T10:22:14;100827.16;;;8.61;100.00
36380;BME280;22411;53.016;18.632;2023-04-07T10:25:08;100824.22;;;8.67;100.00
36380;BME280;22411;53.016;18.632;2023-04-07T10:27:46;100816.38;;;8.84;100.00
36380;BME280;22411;53.016;18.632;2023-04-07T10:30:24;100816.75;;;9.08;100.00
36380;BME280;22411;53.016;18.632;2023-04-07T10:32:52;100825.38;;;9.23;100.00
36380;BME280;22411;53.016;18.632;2023-04-07T10:35:20;100815.41;;;9.31;100.00
36380;BME280;22411;53.016;18.632;2023-04-07T10:40:32;100807.53;;;9.77;100.00
36380;BME280;22411;53.016;18.632;2023-04-07T10:42:58;100806.69;;;9.91;100.00
36380;BME280;22411;53.016;18.632;2023-04-07T10:48:11;100791.88;;;10.07;100.00
36380;BME280;22411;53.016;18.632;2023-04-07T10:50:38;100793.81;;;9.89;100.00
36380;BME280;22411;53.016;18.632;2023-04-07T10:53:09;100793.81;;;9.75;100.00
36380;BME280;22411;53.016;18.632;2023-04-07T10:55:37;100788.03;;;9.72;100.00
36380;BME280;22411;53.016;18.632;2023-04-07T10:58:14;100789.19;;;9.94;100.00
36380;BME280;22411;53.016;18.632;2023-04-07T11:00:41;100785.97;;;10.05;100.00
36380;BME280;22411;53.016;18.632;2023-04-07T11:03:14;100785.72;;;10.22;100.00
36380;BME280;22411;53.016;18.632;2023-04-07T11:05:41;100796.47;;;10.45;100.00
36380;BME280;22411;53.016;18.632;2023-04-07T11:08:07;100792.78;;;10.62;100.00
36380;BME280;22411;53.016;18.632;2023-04-07T11:10:34;100798.28;;;10.57;100.00
36380;BME280;22411;53.016;18.632;2023-04-07T11:13:06;100802.03;;;10.39;100.00
36380;BME280;22411;53.016;18.632;2023-04-07T11:15:36;100804.16;;;10.32;100.00
36380;BME280;22411;53.016;18.632;2023-04-07T11:20:52;100814.81;;;10.13;100.00
36380;BME280;22411;53.016;18.632;2023-04-07T11:23:22;100828.22;;;10.06;100.00
36380;BME280;22411;53.016;18.632;2023-04-07T11:25:52;100834.44;;;10.03;100.00
36380;BME280;22411;53.016;18.632;2023-04-07T11:28:18;100854.03;;;10.07;100.00
36380;BME280;22411;53.016;18.632;2023-04-07T11:30:49;100849.03;;;9.90;100.00
36380;BME280;22411;53.016;18.632;2023-04-07T11:33:25;100851.56;;;9.91;100.00
36380;BME280;22411;53.016;18.632;2023-04-07T11:35:57;100848.19;;;9.89;100.00
36380;BME280;22411;53.016;18.632;2023-04-07T11:38:35;100851.34;;;9.94;100.00
36380;BME280;22411;53.016;18.632;2023-04-07T11:41:13;100854.31;;;9.88;100.00
36380;BME280;22411;53.016;18.632;2023-04-07T11:43:39;100856.59;;;9.79;100.00
36380;BME280;22411;53.016;18.632;2023-04-07T11:46:14;100852.06;;;9.68;100.00
36380;BME280;22411;53.016;18.632;2023-04-07T11:48:43;100843.31;;;9.71;100.00
36380;BME280;22411;53.016;18.632;2023-04-07T11:51:17;100847.00;;;9.81;100.00
36380;BME280;22411;53.016;18.632;2023-04-07T11:53:44;100847.75;;;9.97;100.00
36380;BME280;22411;53.016;18.632;2023-04-07T11:56:14;100845.13;;;10.11;100.00
36380;BME280;22411;53.016;18.632;2023-04-07T11:58:50;100832.94;;;10.28;100.00
36380;BME280;22411;53.016;18.632;2023-04-07T12:01:17;100833.75;;;10.42;100.00
36380;BME280;22411;53.016;18.632;2023-04-07T12:04:03;100838.91;;;10.57;100.00
36380;BME280;22411;53.016;18.632;2023-04-07T12:06:31;100834.66;;;10.56;100.00
36380;BME280;22411;53.016;18.632;2023-04-07T12:09:01;100841.13;;;10.48;100.00
36380;BME280;22411;53.016;18.632;2023-04-07T12:11:27;100844.88;;;10.44;100.00
36380;BME280;22411;53.016;18.632;2023-04-07T12:13:53;100841.53;;;10.42;100.00
36380;BME280;22411;53.016;18.632;2023-04-07T12:16:20;100832.81;;;10.43;100.00
36380;BME280;22411;53.016;18.632;2023-04-07T12:18:46;100841.44;;;10.44;100.00
36380;BME280;22411;53.016;18.632;2023-04-07T12:21:12;100839.09;;;10.54;100.00
36380;BME280;22411;53.016;18.632;2023-04-07T12:23:38;100829.25;;;10.59;100.00
36380;BME280;22411;53.016;18.632;2023-04-07T12:26:04;100842.16;;;10.60;100.00
36380;BME280;22411;53.016;18.632;2023-04-07T12:28:31;100835.47;;;10.70;100.00
36380;BME280;22411;53.016;18.632;2023-04-07T12:30:57;100841.53;;;10.69;100.00
36380;BME280;22411;53.016;18.632;2023-04-07T12:33:23;100837.94;;;10.72;100.00
36380;BME280;22411;53.016;18.632;2023-04-07T12:35:49;100839.31;;;10.78;100.00
36380;BME280;22411;53.016;18.632;2023-04-07T12:38:16;100836.84;;;10.89;100.00
36380;BME280;22411;53.016;18.632;2023-04-07T12:40:42;100844.81;;;10.86;100.00
36380;BME280;22411;53.016;18.632;2023-04-07T12:43:08;100844.81;;;10.86;100.00
36380;BME280;22411;53.016;18.632;2023-04-07T12:45:34;100852.41;;;10.89;100.00
36380;BME280;22411;53.016;18.632;2023-04-07T12:48:01;100845.34;;;10.91;100.00
36380;BME280;22411;53.016;18.632;2023-04-07T12:50:28;100849.44;;;10.95;100.00
36380;BME280;22411;53.016;18.632;2023-04-07T12:52:56;100844.25;;;10.95;100.00